createdAt,value
2019-03-12T00:01:12.000Z,5.87
2019-03-12T00:03:41.433Z,5.67
2019-03-12T00:06:11.649Z,5.40
2019-03-12T00:08:41.829Z,4.63
2019-03-12T00:11:11.948Z,3.90
2019-03-12T00:13:42.012Z,3.83
2019-03-12T00:16:12.192Z,4.15
2019-03-12T00:18:42.326Z,4.20
2019-03-12T00:21:12.435Z,3.90
2019-03-12T00:23:42.649Z,4.20
2019-03-12T00:26:12.689Z,3.87
2019-03-12T00:28:42.809Z,4.07
2019-03-12T00:31:13.006Z,3.57
2019-03-12T00:33:43.209Z,4.17
2019-03-12T00:36:13.248Z,4.27
2019-03-12T00:38:43.384Z,4.13
2019-03-12T00:41:13.503Z,3.72
2019-03-12T00:43:43.700Z,4.62
2019-03-12T00:46:13.813Z,4.03
2019-03-12T00:48:44.002Z,4.50
2019-03-12T00:51:14.062Z,4.93
2019-03-12T00:53:44.189Z,5.63
2019-03-12T00:56:14.360Z,4.95
2019-03-12T00:58:44.517Z,5.57
2019-03-12T01:01:14.619Z,5.43
2019-03-12T01:03:44.756Z,6.03
2019-03-12T01:06:14.940Z,6.10
2019-03-12T01:08:45.092Z,7.10
2019-03-12T01:11:15.178Z,6.07
2019-03-12T01:13:44.594Z,6.33
2019-03-12T01:16:14.048Z,6.90
2019-03-12T01:18:43.458Z,7.10
2019-03-12T01:21:12.886Z,7.50
2019-03-12T01:23:42.382Z,6.97
2019-03-12T01:26:11.824Z,8.20
2019-03-12T01:28:41.318Z,7.80
2019-03-12T01:31:10.694Z,8.03
2019-03-12T01:33:40.128Z,7.73
2019-03-12T01:36:11.342Z,8.00
2019-03-12T01:38:42.418Z,7.17
2019-03-12T01:41:11.942Z,7.80
2019-03-12T01:43:41.360Z,7.80
2019-03-12T01:46:10.810Z,7.43
2019-03-12T01:48:40.230Z,7.47
2019-03-12T01:51:09.672Z,8.23
2019-03-12T01:53:39.096Z,7.20
2019-03-12T01:56:08.468Z,7.07
2019-03-12T01:58:37.898Z,7.03
2019-03-12T02:01:19.830Z,7.33
2019-03-12T02:03:49.270Z,5.97
2019-03-12T02:06:18.696Z,6.00
2019-03-12T02:08:48.469Z,7.25
2019-03-12T02:11:18.495Z,5.90
2019-03-12T02:13:48.624Z,6.23
2019-03-12T02:16:18.751Z,5.93
2019-03-12T02:18:48.858Z,5.87
2019-03-12T02:21:19.064Z,5.87
2019-03-12T02:23:50.185Z,5.83
2019-03-12T02:26:19.632Z,5.53
2019-03-12T02:28:49.431Z,6.17
2019-03-12T02:31:19.638Z,4.95
2019-03-12T02:33:49.767Z,5.58
2019-03-12T02:36:19.930Z,5.40
2019-03-12T02:38:50.060Z,4.93
2019-03-12T02:41:20.176Z,5.20
2019-03-12T02:43:50.266Z,5.67
2019-03-12T02:46:20.441Z,5.20
2019-03-12T02:48:50.529Z,4.95
2019-03-12T02:51:20.668Z,4.97
2019-03-12T02:53:50.914Z,4.37
2019-03-12T02:56:21.019Z,5.37
2019-03-12T02:58:51.151Z,5.30
2019-03-12T03:01:21.345Z,4.37
2019-03-12T03:03:51.471Z,5.23
2019-03-12T03:06:23.223Z,5.00
2019-03-12T03:08:52.701Z,5.70
2019-03-12T03:11:22.119Z,5.10
2019-03-12T03:13:51.967Z,4.97
2019-03-12T03:16:24.146Z,5.07
2019-03-12T03:18:54.655Z,4.67
2019-03-12T03:21:24.148Z,4.63
2019-03-12T03:23:53.578Z,4.80
2019-03-12T03:26:23.032Z,4.43
2019-03-12T03:28:52.622Z,4.60
2019-03-12T03:31:22.855Z,4.53
2019-03-12T03:33:52.950Z,4.80
2019-03-12T03:36:23.110Z,4.75
2019-03-12T03:38:53.616Z,4.83
2019-03-12T03:41:23.325Z,4.27
2019-03-12T03:43:53.538Z,5.12
2019-03-12T03:46:24.069Z,4.57
2019-03-12T03:48:53.784Z,4.57
2019-03-12T03:51:23.911Z,4.80
2019-03-12T03:53:54.077Z,5.70
2019-03-12T03:56:24.177Z,5.00
2019-03-12T03:58:54.409Z,4.70
2019-03-12T04:01:24.446Z,5.03
2019-03-12T04:03:54.729Z,5.33
2019-03-12T04:06:24.877Z,5.27
2019-03-12T04:08:54.852Z,5.17
2019-03-12T04:11:25.036Z,5.40
2019-03-12T04:13:55.117Z,5.00
2019-03-12T04:16:25.371Z,4.85
2019-03-12T04:18:55.363Z,5.07
2019-03-12T04:21:25.672Z,4.97
2019-03-12T04:23:55.707Z,5.90
2019-03-12T04:26:25.897Z,5.43
2019-03-12T04:28:55.989Z,4.80
2019-03-12T04:31:26.165Z,5.95
2019-03-12T04:34:02.295Z,5.63
2019-03-12T04:36:31.730Z,5.43
2019-03-12T04:39:01.172Z,5.13
2019-03-12T04:41:32.243Z,5.47
2019-03-12T04:44:01.686Z,4.87
2019-03-12T04:46:32.256Z,5.20
2019-03-12T04:49:01.720Z,5.97
2019-03-12T04:51:31.166Z,5.63
2019-03-12T04:54:00.597Z,5.17
2019-03-12T04:56:30.062Z,5.90
2019-03-12T04:58:59.570Z,6.27
2019-03-12T05:01:29.021Z,7.33
2019-03-12T05:03:58.470Z,5.47
2019-03-12T05:06:28.995Z,6.17
2019-03-12T05:08:58.426Z,6.10
2019-03-12T05:11:28.424Z,5.70
2019-03-12T05:14:19.885Z,5.67
2019-03-12T05:16:49.415Z,6.47
2019-03-12T05:19:18.978Z,6.33
2019-03-12T05:21:51.479Z,6.57
2019-03-12T05:24:20.908Z,6.57
2019-03-12T05:26:50.360Z,5.83
2019-03-12T05:29:22.739Z,8.10
2019-03-12T05:31:52.251Z,6.40
2019-03-12T05:34:23.234Z,8.10
2019-03-12T05:36:52.919Z,6.67
2019-03-12T05:39:22.362Z,7.77
2019-03-12T05:41:51.781Z,6.57
2019-03-12T05:44:21.204Z,8.03
2019-03-12T05:46:50.670Z,6.13
2019-03-12T05:49:21.279Z,5.50
2019-03-12T05:51:50.649Z,6.07
2019-03-12T05:54:20.079Z,5.87
2019-03-12T05:56:49.969Z,6.00
2019-03-12T05:59:19.381Z,5.97
2019-03-12T06:01:48.976Z,5.70
2019-03-12T06:04:18.401Z,4.53
2019-03-12T06:06:47.841Z,5.80
2019-03-12T06:09:29.481Z,5.17
2019-03-12T06:11:48.477Z,4.87
2019-03-12T06:14:17.849Z,5.50
2019-03-12T06:16:48.511Z,4.63
2019-03-12T06:19:17.965Z,4.90
2019-03-12T06:21:47.314Z,5.10
2019-03-12T06:24:16.690Z,4.47
2019-03-12T06:26:46.118Z,4.23
2019-03-12T06:29:15.563Z,5.00
2019-03-12T06:31:49.620Z,4.87
2019-03-12T06:34:20.715Z,5.03
2019-03-12T06:37:00.693Z,5.33
2019-03-12T06:39:31.769Z,5.40
2019-03-12T06:42:11.821Z,4.53
2019-03-12T06:44:48.915Z,6.07
2019-03-12T06:47:31.853Z,5.27
2019-03-12T06:50:02.929Z,5.50
2019-03-12T06:52:45.937Z,6.03
2019-03-12T06:55:19.569Z,8.73
2019-03-12T06:58:24.291Z,7.80
2019-03-12T07:01:01.133Z,7.50
2019-03-12T07:03:48.551Z,8.60
2019-03-12T07:06:19.629Z,8.90
2019-03-12T07:09:06.944Z,10.05
2019-03-12T07:11:54.313Z,10.60
2019-03-12T07:14:41.929Z,9.30
2019-03-12T07:17:29.770Z,10.40
2019-03-12T07:20:09.534Z,9.70
2019-03-12T07:22:40.627Z,10.63
2019-03-12T07:25:17.584Z,10.50
2019-03-12T07:27:51.726Z,11.03
2019-03-12T07:30:25.572Z,11.37
2019-03-12T07:33:08.286Z,11.40
2019-03-12T07:35:39.292Z,11.10
2019-03-12T07:38:27.190Z,8.50
2019-03-12T07:41:07.292Z,9.63
2019-03-12T07:43:54.948Z,8.67
2019-03-12T07:46:26.035Z,7.50
2019-03-12T07:49:09.392Z,6.60
2019-03-12T07:51:53.140Z,6.90
2019-03-12T07:54:28.278Z,7.17
2019-03-12T07:57:01.862Z,5.83
2019-03-12T07:59:42.271Z,5.30
2019-03-12T08:02:31.402Z,5.10
2019-03-12T08:05:08.509Z,4.70
2019-03-12T08:07:55.799Z,5.17
2019-03-12T08:10:42.916Z,5.10
2019-03-12T08:13:14.073Z,5.00
2019-03-12T08:16:03.588Z,4.43
2019-03-12T08:18:35.677Z,4.00
2019-03-12T08:21:21.443Z,4.30
2019-03-12T08:23:46.200Z,4.60
2019-03-12T08:26:32.451Z,3.60
2019-03-12T08:29:06.218Z,4.37
2019-03-12T08:31:38.934Z,4.73
2019-03-12T08:34:10.011Z,3.73
2019-03-12T08:36:52.926Z,3.90
2019-03-12T08:39:26.736Z,4.10
2019-03-12T08:42:03.540Z,3.90
2019-03-12T08:44:37.472Z,4.40
2019-03-12T08:47:16.332Z,3.80
2019-03-12T08:50:02.325Z,4.03
2019-03-12T08:52:42.275Z,4.30
2019-03-12T08:55:22.151Z,4.20
2019-03-12T08:57:55.982Z,4.40
2019-03-12T09:00:32.767Z,4.43
2019-03-12T09:03:06.576Z,4.53
2019-03-12T09:05:43.400Z,4.57
2019-03-12T09:08:17.288Z,4.43
2019-03-12T09:10:48.437Z,4.63
2019-03-12T09:13:19.589Z,5.20
2019-03-12T09:15:56.396Z,4.53
2019-03-12T09:18:33.225Z,4.17
2019-03-12T09:21:13.574Z,5.10
2019-03-12T09:23:59.900Z,4.10
2019-03-12T09:26:39.732Z,4.80
2019-03-12T09:29:10.831Z,5.37
2019-03-12T09:31:58.461Z,5.00
2019-03-12T09:34:29.535Z,5.27
2019-03-12T09:37:03.218Z,4.77
2019-03-12T09:39:40.082Z,5.30
2019-03-12T09:42:17.089Z,6.03
2019-03-12T09:45:04.688Z,6.27
2019-03-12T09:47:52.194Z,5.23
2019-03-12T09:50:23.304Z,5.40
2019-03-12T09:53:03.681Z,5.87
2019-03-12T09:55:35.851Z,6.23
2019-03-12T09:58:09.921Z,5.97
2019-03-12T10:00:58.790Z,7.27
2019-03-12T10:03:32.582Z,7.13
2019-03-12T10:06:03.712Z,6.58
2019-03-12T10:08:34.863Z,6.97
2019-03-12T10:11:06.115Z,8.27
2019-03-12T10:13:43.189Z,7.63
2019-03-12T10:16:22.989Z,8.67
2019-03-12T10:18:56.455Z,8.00
2019-03-12T10:21:33.556Z,9.37
2019-03-12T10:24:04.772Z,8.30
2019-03-12T10:26:54.265Z,9.80
2019-03-12T10:29:25.423Z,9.50
2019-03-12T10:32:08.667Z,9.70
2019-03-12T10:34:39.740Z,9.03
2019-03-12T10:37:16.424Z,10.60
2019-03-12T10:39:54.660Z,9.50
2019-03-12T10:42:34.511Z,9.23
2019-03-12T10:45:10.154Z,8.93
2019-03-12T10:47:41.323Z,9.47
2019-03-12T10:50:11.189Z,9.03
2019-03-12T10:52:40.716Z,8.90
2019-03-12T10:55:13.417Z,9.17
2019-03-12T10:57:41.470Z,9.50
2019-03-12T11:00:15.670Z,9.03
2019-03-12T11:02:45.247Z,8.93
2019-03-12T11:05:15.129Z,7.63
2019-03-12T11:07:44.584Z,8.13
2019-03-12T11:10:19.783Z,9.07
2019-03-12T11:12:49.354Z,8.47
2019-03-12T11:15:18.858Z,8.70
2019-03-12T11:17:49.777Z,8.10
2019-03-12T11:20:22.239Z,7.87
2019-03-12T11:22:51.831Z,8.40
2019-03-12T11:25:27.034Z,7.78
2019-03-12T11:27:53.362Z,7.73
2019-03-12T11:30:22.897Z,7.40
2019-03-12T11:32:52.332Z,7.63
2019-03-12T11:35:22.339Z,7.47
2019-03-12T11:37:52.929Z,7.20
2019-03-12T11:40:24.248Z,7.50
2019-03-12T11:42:54.048Z,7.47
2019-03-12T11:45:35.647Z,7.23
2019-03-12T11:47:57.625Z,7.07
2019-03-12T11:50:27.439Z,7.43
2019-03-12T11:52:58.950Z,7.77
2019-03-12T11:55:27.951Z,7.70
2019-03-12T11:57:57.340Z,7.07
2019-03-12T12:00:31.252Z,7.10
2019-03-12T12:03:01.148Z,7.67
2019-03-12T12:05:32.080Z,7.17
2019-03-12T12:08:01.549Z,6.53
2019-03-12T12:10:31.073Z,7.27
2019-03-12T12:13:00.575Z,6.57
2019-03-12T12:15:30.476Z,7.07
2019-03-12T12:18:00.063Z,7.23
2019-03-12T12:20:30.529Z,6.40
2019-03-12T12:23:00.122Z,6.10
2019-03-12T12:25:29.551Z,6.07
2019-03-12T12:27:59.070Z,5.80
2019-03-12T12:30:28.645Z,6.07
2019-03-12T12:32:58.091Z,5.77
2019-03-12T12:35:27.634Z,5.70
2019-03-12T12:37:57.103Z,5.80
2019-03-12T12:40:26.522Z,5.00
2019-03-12T12:42:56.291Z,5.43
2019-03-12T12:45:28.273Z,5.60
2019-03-12T12:47:57.723Z,5.53
2019-03-12T12:50:27.286Z,5.53
2019-03-12T12:52:56.708Z,5.00
2019-03-12T12:55:26.943Z,5.10
2019-03-12T12:57:56.911Z,5.00
2019-03-12T13:00:28.691Z,4.60
2019-03-12T13:02:58.187Z,4.13
2019-03-12T13:05:27.795Z,4.17
2019-03-12T13:07:57.473Z,4.20
2019-03-12T13:10:31.409Z,4.50
2019-03-12T13:13:00.858Z,3.97
2019-03-12T13:15:30.445Z,4.23
2019-03-12T13:17:59.945Z,4.90
2019-03-12T13:20:29.460Z,4.37
2019-03-12T13:22:58.900Z,4.23
2019-03-12T13:25:28.633Z,4.20
2019-03-12T13:27:58.737Z,3.63
2019-03-12T13:30:28.877Z,3.67
2019-03-12T13:32:59.033Z,4.00
2019-03-12T13:35:29.244Z,3.63
2019-03-12T13:37:59.361Z,3.90
2019-03-12T13:40:29.563Z,3.50
2019-03-12T13:42:59.613Z,3.90
2019-03-12T13:45:33.173Z,3.50
2019-03-12T13:48:03.043Z,4.20
2019-03-12T13:50:32.802Z,3.27
2019-03-12T13:53:02.367Z,4.13
2019-03-12T13:55:32.051Z,3.23
2019-03-12T13:58:01.650Z,3.00
2019-03-12T14:00:33.396Z,3.93
2019-03-12T14:03:02.267Z,3.10
2019-03-12T14:05:31.612Z,2.93
2019-03-12T14:08:01.187Z,3.07
2019-03-12T14:10:31.122Z,3.03
2019-03-12T14:13:01.386Z,2.90
2019-03-12T14:15:32.599Z,3.00
2019-03-12T14:18:02.272Z,3.90
2019-03-12T14:20:52.013Z,3.00
2019-03-12T14:23:27.502Z,3.20
2019-03-12T14:25:57.069Z,2.90
2019-03-12T14:28:26.643Z,3.50
2019-03-12T14:30:56.197Z,3.00
2019-03-12T14:33:25.700Z,4.10
2019-03-12T14:35:55.275Z,3.90
2019-03-12T14:38:25.785Z,3.73
2019-03-12T14:40:56.429Z,3.63
2019-03-12T14:43:26.009Z,3.40
2019-03-12T14:45:55.507Z,3.50
2019-03-12T14:48:42.170Z,3.40
2019-03-12T14:51:14.808Z,3.80
2019-03-12T14:53:47.106Z,4.10
2019-03-12T14:56:16.533Z,3.77
2019-03-12T14:58:45.984Z,3.87
2019-03-12T15:01:15.657Z,3.97
2019-03-12T15:03:45.240Z,3.20
2019-03-12T15:06:14.671Z,3.60
2019-03-12T15:08:44.195Z,3.53
2019-03-12T15:11:13.697Z,3.40
2019-03-12T15:13:43.140Z,3.40
2019-03-12T15:16:14.120Z,3.93
2019-03-12T15:18:44.041Z,3.23
2019-03-12T15:21:13.605Z,3.20
2019-03-12T15:23:43.120Z,3.00
2019-03-12T15:26:12.793Z,3.63
2019-03-12T15:28:42.246Z,3.23
2019-03-12T15:31:11.675Z,4.13
2019-03-12T15:33:41.138Z,3.17
2019-03-12T15:36:10.564Z,2.83
2019-03-12T15:38:40.022Z,3.20
2019-03-12T15:41:09.457Z,3.03
2019-03-12T15:43:38.906Z,3.37
2019-03-12T15:46:08.334Z,4.17
2019-03-12T15:48:37.775Z,3.53
2019-03-12T15:51:07.287Z,3.00
2019-03-12T15:53:36.746Z,3.20
2019-03-12T15:56:07.010Z,2.97
2019-03-12T15:58:37.073Z,3.33
2019-03-12T16:01:07.328Z,3.50
2019-03-12T16:03:37.316Z,3.50
2019-03-12T16:06:07.572Z,3.83
2019-03-12T16:08:37.582Z,3.17
2019-03-12T16:11:07.759Z,2.70
2019-03-12T16:13:37.951Z,3.57
2019-03-12T16:16:08.155Z,3.07
2019-03-12T16:18:38.228Z,3.13
2019-03-12T16:21:08.324Z,3.00
2019-03-12T16:23:38.528Z,2.60
2019-03-12T16:26:08.543Z,2.90
2019-03-12T16:28:38.778Z,2.33
2019-03-12T16:31:08.881Z,3.08
2019-03-12T16:33:39.038Z,3.27
2019-03-12T16:36:09.073Z,3.07
2019-03-12T16:38:39.445Z,2.80
2019-03-12T16:41:09.459Z,2.60
2019-03-12T16:43:40.112Z,3.00
2019-03-12T16:46:09.702Z,3.10
2019-03-12T16:48:39.911Z,2.77
2019-03-12T16:51:10.021Z,2.98
2019-03-12T16:53:40.168Z,2.80
2019-03-12T16:56:11.992Z,2.30
2019-03-12T16:58:41.441Z,2.60
2019-03-12T17:01:11.415Z,2.70
2019-03-12T17:03:42.478Z,2.70
2019-03-12T17:06:11.987Z,2.20
2019-03-12T17:08:41.643Z,3.17
2019-03-12T17:11:12.815Z,2.60
2019-03-12T17:13:42.553Z,2.13
2019-03-12T17:16:12.048Z,3.13
2019-03-12T17:18:42.310Z,2.90
2019-03-12T17:21:12.333Z,2.77
2019-03-12T17:23:42.471Z,2.17
2019-03-12T17:26:12.559Z,1.83
2019-03-12T17:28:42.814Z,2.97
2019-03-12T17:31:13.394Z,2.63
2019-03-12T17:33:43.003Z,3.00
2019-03-12T17:36:13.175Z,3.03
2019-03-12T17:38:46.900Z,2.12
2019-03-12T17:41:14.700Z,2.83
2019-03-12T17:43:48.499Z,2.90
2019-03-12T17:46:18.015Z,2.90
2019-03-12T17:48:47.615Z,2.37
2019-03-12T17:51:18.548Z,2.60
2019-03-12T17:53:48.021Z,2.13
2019-03-12T17:56:18.561Z,2.47
2019-03-12T17:58:49.642Z,2.80
2019-03-12T18:01:19.190Z,3.17
2019-03-12T18:03:48.716Z,2.30
2019-03-12T18:06:18.657Z,2.73
2019-03-12T18:08:49.290Z,2.50
2019-03-12T18:11:18.822Z,2.20
2019-03-12T18:13:49.621Z,2.80
2019-03-12T18:16:23.402Z,2.47
2019-03-12T18:18:52.858Z,2.63
2019-03-12T18:21:22.494Z,2.90
2019-03-12T18:23:51.990Z,2.37
2019-03-12T18:26:21.503Z,2.67
2019-03-12T18:28:51.095Z,2.00
2019-03-12T18:31:20.631Z,2.20
2019-03-12T18:33:50.453Z,2.30
2019-03-12T18:36:21.504Z,2.30
2019-03-12T18:38:53.009Z,2.73
2019-03-12T18:41:22.103Z,2.30
2019-03-12T18:43:53.161Z,2.03
2019-03-12T18:46:22.747Z,2.93
2019-03-12T18:48:52.193Z,2.60
2019-03-12T18:51:23.519Z,2.73
2019-03-12T18:53:55.857Z,2.47
2019-03-12T18:56:26.332Z,2.33
2019-03-12T18:58:57.403Z,2.77
2019-03-12T19:01:27.008Z,2.67
2019-03-12T19:03:56.452Z,2.60
2019-03-12T19:06:27.141Z,2.27
2019-03-12T19:08:56.739Z,2.40
2019-03-12T19:11:26.259Z,2.70
2019-03-12T19:13:55.849Z,2.50
2019-03-12T19:16:27.066Z,2.33
2019-03-12T19:18:56.610Z,2.43
2019-03-12T19:21:27.704Z,2.60
2019-03-12T19:23:59.838Z,2.20
2019-03-12T19:26:29.428Z,2.33
2019-03-12T19:28:59.001Z,2.50
2019-03-12T19:31:30.256Z,2.27
2019-03-12T19:34:00.678Z,3.03
2019-03-12T19:36:34.984Z,2.97
2019-03-12T19:39:07.999Z,4.00
2019-03-12T19:41:38.176Z,2.30
2019-03-12T19:44:09.825Z,2.70
2019-03-12T19:46:39.406Z,2.70
2019-03-12T19:49:09.496Z,2.43
2019-03-12T19:51:39.091Z,2.20
2019-03-12T19:54:08.669Z,2.47
2019-03-12T19:56:38.420Z,2.43
2019-03-12T19:59:08.085Z,2.30
2019-03-12T20:01:39.470Z,2.47
2019-03-12T20:04:10.541Z,2.17
2019-03-12T20:06:40.201Z,2.27
2019-03-12T20:09:09.947Z,2.20
2019-03-12T20:11:49.901Z,1.97
2019-03-12T20:14:40.091Z,2.63
2019-03-12T20:17:25.315Z,2.43
2019-03-12T20:20:13.970Z,2.40
2019-03-12T20:23:18.414Z,2.47
2019-03-12T20:26:16.527Z,2.50
2019-03-12T20:29:04.270Z,2.30
2019-03-12T20:32:00.869Z,2.50
2019-03-12T20:34:54.978Z,2.20
2019-03-12T20:37:57.080Z,2.80
2019-03-12T20:40:55.953Z,2.43
2019-03-12T20:43:28.733Z,2.40
2019-03-12T20:46:28.694Z,2.40
2019-03-12T20:49:16.326Z,2.77
2019-03-12T20:52:13.096Z,2.77
2019-03-12T20:55:02.960Z,2.30
2019-03-12T20:57:59.081Z,2.03
2019-03-12T21:00:59.127Z,1.70
2019-03-12T21:03:54.168Z,1.90
2019-03-12T21:06:44.419Z,2.00
2019-03-12T21:09:34.835Z,2.00
2019-03-12T21:12:28.216Z,2.23
2019-03-12T21:15:23.084Z,2.13
2019-03-12T21:18:11.899Z,2.73
2019-03-12T21:20:56.237Z,1.77
2019-03-12T21:23:45.062Z,2.40
2019-03-12T21:26:23.166Z,1.97
2019-03-12T21:28:59.493Z,1.80
2019-03-12T21:31:29.189Z,1.87
2019-03-12T21:33:58.744Z,1.93
2019-03-12T21:36:30.999Z,2.10
2019-03-12T21:39:00.162Z,2.03
2019-03-12T21:41:30.052Z,2.07
2019-03-12T21:44:00.569Z,2.10
2019-03-12T21:46:30.112Z,2.10
2019-03-12T21:49:00.999Z,1.77
2019-03-12T21:51:30.835Z,1.90
2019-03-12T21:54:00.192Z,1.90
2019-03-12T21:56:29.712Z,1.73
2019-03-12T21:59:08.874Z,2.10
2019-03-12T22:01:39.896Z,2.20
2019-03-12T22:04:11.108Z,2.40
2019-03-12T22:06:40.570Z,2.33
2019-03-12T22:09:11.769Z,1.80
2019-03-12T22:11:41.850Z,1.83
2019-03-12T22:14:11.290Z,2.47
2019-03-12T22:16:40.734Z,1.90
2019-03-12T22:19:10.151Z,2.30
2019-03-12T22:21:59.174Z,2.20
2019-03-12T22:24:28.667Z,2.07
2019-03-12T22:26:58.132Z,2.30
2019-03-12T22:29:27.563Z,2.23
2019-03-12T22:31:57.086Z,2.57
2019-03-12T22:34:26.523Z,2.00
2019-03-12T22:36:55.978Z,2.00
2019-03-12T22:39:25.343Z,2.17
2019-03-12T22:41:55.777Z,2.10
2019-03-12T22:44:25.212Z,2.20
2019-03-12T22:46:54.674Z,2.30
2019-03-12T22:49:24.170Z,2.80
2019-03-12T22:51:53.618Z,2.30
2019-03-12T22:54:23.054Z,2.30
2019-03-12T22:56:52.507Z,2.63
2019-03-12T22:59:23.634Z,2.77
2019-03-12T23:02:10.860Z,2.73
2019-03-12T23:04:58.586Z,2.60
2019-03-12T23:07:45.939Z,2.43
2019-03-12T23:10:17.233Z,2.77
2019-03-12T23:12:48.309Z,2.50
2019-03-12T23:15:19.488Z,2.00
2019-03-12T23:17:49.288Z,2.13
2019-03-12T23:20:20.558Z,2.07
2019-03-12T23:22:52.203Z,2.30
2019-03-12T23:25:21.262Z,2.20
2019-03-12T23:27:51.315Z,2.07
2019-03-12T23:30:22.056Z,3.03
2019-03-12T23:32:52.088Z,2.30
2019-03-12T23:35:21.592Z,2.63
2019-03-12T23:37:51.139Z,2.50
2019-03-12T23:40:20.552Z,2.33
2019-03-12T23:42:49.972Z,3.00
2019-03-12T23:45:19.407Z,1.40
2019-03-12T23:47:50.368Z,0.90
2019-03-12T23:50:20.200Z,1.10
2019-03-12T23:52:49.712Z,1.23
2019-03-12T23:55:19.714Z,0.90
2019-03-12T23:57:50.086Z,1.10
